sensor_id;sensor_type;location;lat;lon;timestamp;pressure;altitude;pressure_sealevel;temperature;humidity
53619;BME280;68717;53.040;18.488;2023-12-14T00:00:07;100433.06;;;4.21;100.00
53619;BME280;68717;53.040;18.488;2023-12-14T00:00:21;100436.56;;;4.22;100.00
53619;BME280;68717;53.040;18.488;2023-12-14T00:00:54;100430.41;;;4.21;100.00
53619;BME280;68717;53.040;18.488;2023-12-14T00:01:19;100428.59;;;4.22;100.00
53619;BME280;68717;53.040;18.488;2023-12-14T00:01:32;100435.72;;;4.21;100.00
53619;BME280;68717;53.040;18.488;2023-12-14T00:01:45;100433.06;;;4.21;100.00
53619;BME280;68717;53.040;18.488;2023-12-14T00:01:58;100438.38;;;4.21;100.00
53619;BME280;68717;53.040;18.488;2023-12-14T00:02:12;100434.78;;;4.22;100.00
53619;BME280;68717;53.040;18.488;2023-12-14T00:02:25;100434.78;;;4.22;100.00
53619;BME280;68717;53.040;18.488;2023-12-14T00:02:38;100435.72;;;4.21;100.00
53619;BME280;68717;53.040;18.488;2023-12-14T00:02:51;100432.22;;;4.21;100.00
53619;BME280;68717;53.040;18.488;2023-12-14T00:03:04;100427.75;;;4.21;100.00
53619;BME280;68717;53.040;18.488;2023-12-14T00:03:17;100433.06;;;4.21;100.00
53619;BME280;68717;53.040;18.488;2023-12-14T00:03:30;100429.47;;;4.22;100.00
53619;BME280;68717;53.040;18.488;2023-12-14T00:03:43;100433.91;;;4.22;100.00
53619;BME280;68717;53.040;18.488;2023-12-14T00:03:57;100436.56;;;4.22;100.00
53619;BME280;68717;53.040;18.488;2023-12-14T00:04:10;100433.06;;;4.21;100.00
53619;BME280;68717;53.040;18.488;2023-12-14T00:04:23;100433.91;;;4.22;100.00
53619;BME280;68717;53.040;18.488;2023-12-14T00:04:36;100434.88;;;4.21;100.00
53619;BME280;68717;53.040;18.488;2023-12-14T00:04:49;100432.22;;;4.21;100.00
53619;BME280;68717;53.040;18.488;2023-12-14T00:05:02;100431.38;;;4.20;100.00
53619;BME280;68717;53.040;18.488;2023-12-14T00:05:15;100433.06;;;4.21;100.00
53619;BME280;68717;53.040;18.488;2023-12-14T00:05:28;100433.06;;;4.21;100.00
53619;BME280;68717;53.040;18.488;2023-12-14T00:05:41;100434.03;;;4.20;100.00
53619;BME280;68717;53.040;18.488;2023-12-14T00:05:55;100433.06;;;4.21;100.00
53619;BME280;68717;53.040;18.488;2023-12-14T00:06:08;100432.22;;;4.21;100.00
53619;BME280;68717;53.040;18.488;2023-12-14T00:06:21;100436.69;;;4.20;100.00
53619;BME280;68717;53.040;18.488;2023-12-14T00:06:34;100427.75;;;4.21;100.00
53619;BME280;68717;53.040;18.488;2023-12-14T00:06:47;100427.75;;;4.21;100.00
53619;BME280;68717;53.040;18.488;2023-12-14T00:06:59;100438.38;;;4.21;100.00
53619;BME280;68717;53.040;18.488;2023-12-14T00:07:12;100437.44;;;4.22;100.00
53619;BME280;68717;53.040;18.488;2023-12-14T00:07:27;100433.91;;;4.22;100.00
53619;BME280;68717;53.040;18.488;2023-12-14T00:07:39;100434.78;;;4.22;100.00
53619;BME280;68717;53.040;18.488;2023-12-14T00:07:52;100438.38;;;4.21;100.00
53619;BME280;68717;53.040;18.488;2023-12-14T00:08:05;100433.91;;;4.22;100.00
53619;BME280;68717;53.040;18.488;2023-12-14T00:08:18;100432.13;;;4.22;100.00
53619;BME280;68717;53.040;18.488;2023-12-14T00:08:31;100428.59;;;4.22;100.00
53619;BME280;68717;53.040;18.488;2023-12-14T00:08:44;100432.13;;;4.22;100.00
53619;BME280;68717;53.040;18.488;2023-12-14T00:08:58;100429.47;;;4.22;100.00
53619;BME280;68717;53.040;18.488;2023-12-14T00:09:11;100434.78;;;4.22;100.00
53619;BME280;68717;53.040;18.488;2023-12-14T00:09:24;100436.47;;;4.23;100.00
53619;BME280;68717;53.040;18.488;2023-12-14T00:09:37;100433.81;;;4.23;100.00
53619;BME280;68717;53.040;18.488;2023-12-14T00:09:50;100430.31;;;4.23;100.00
53619;BME280;68717;53.040;18.488;2023-12-14T00:10:03;100431.16;;;4.23;100.00
53619;BME280;68717;53.040;18.488;2023-12-14T00:10:18;100430.31;;;4.23;100.00
53619;BME280;68717;53.040;18.488;2023-12-14T00:10:30;100434.78;;;4.22;100.00
53619;BME280;68717;53.040;18.488;2023-12-14T00:10:44;100431.16;;;4.23;100.00
53619;BME280;68717;53.040;18.488;2023-12-14T00:11:03;100438.16;;;4.24;100.00
53619;BME280;68717;53.040;18.488;2023-12-14T00:11:16;100436.47;;;4.23;100.00
53619;BME280;68717;53.040;18.488;2023-12-14T00:11:29;100432.84;;;4.24;100.00
53619;BME280;68717;53.040;18.488;2023-12-14T00:11:42;100432.84;;;4.24;100.00
53619;BME280;68717;53.040;18.488;2023-12-14T00:11:55;100433.81;;;4.23;100.00
53619;BME280;68717;53.040;18.488;2023-12-14T00:12:08;100432.84;;;4.24;100.00
53619;BME280;68717;53.040;18.488;2023-12-14T00:12:21;100436.25;;;4.26;100.00
53619;BME280;68717;53.040;18.488;2023-12-14T00:12:34;100436.38;;;4.25;100.00
53619;BME280;68717;53.040;18.488;2023-12-14T00:12:48;100437.22;;;4.25;100.00
53619;BME280;68717;53.040;18.488;2023-12-14T00:13:03;100429.28;;;4.25;100.00
53619;BME280;68717;53.040;18.488;2023-12-14T00:13:17;100436.38;;;4.25;100.00
53619;BME280;68717;53.040;18.488;2023-12-14T00:13:30;100437.22;;;4.25;100.00
53619;BME280;68717;53.040;18.488;2023-12-14T00:13:43;100435.41;;;4.26;100.00
53619;BME280;68717;53.040;18.488;2023-12-14T00:13:56;100435.41;;;4.26;100.00
53619;BME280;68717;53.040;18.488;2023-12-14T00:14:09;100438.16;;;4.24;100.00
53619;BME280;68717;53.040;18.488;2023-12-14T00:14:21;100438.16;;;4.24;100.00
53619;BME280;68717;53.040;18.488;2023-12-14T00:14:34;100439.13;;;4.23;100.00
53619;BME280;68717;53.040;18.488;2023-12-14T00:14:48;100436.47;;;4.23;100.00
53619;BME280;68717;53.040;18.488;2023-12-14T00:15:01;100441.78;;;4.23;100.00
53619;BME280;68717;53.040;18.488;2023-12-14T00:15:15;100439.97;;;4.24;100.00
53619;BME280;68717;53.040;18.488;2023-12-14T00:15:28;100440.81;;;4.24;100.00
53619;BME280;68717;53.040;18.488;2023-12-14T00:15:41;100434.66;;;4.24;100.00
53619;BME280;68717;53.040;18.488;2023-12-14T00:15:54;100436.47;;;4.23;100.00
53619;BME280;68717;53.040;18.488;2023-12-14T00:16:08;100439.13;;;4.23;100.00
53619;BME280;68717;53.040;18.488;2023-12-14T00:16:22;100433.72;;;4.25;100.00
53619;BME280;68717;53.040;18.488;2023-12-14T00:16:36;100436.47;;;4.23;100.00
53619;BME280;68717;53.040;18.488;2023-12-14T00:16:49;100431.16;;;4.23;100.00
53619;BME280;68717;53.040;18.488;2023-12-14T00:17:02;100436.47;;;4.23;100.00
53619;BME280;68717;53.040;18.488;2023-12-14T00:17:15;100435.63;;;4.23;100.00
53619;BME280;68717;53.040;18.488;2023-12-14T00:17:28;100436.47;;;4.23;100.00
53619;BME280;68717;53.040;18.488;2023-12-14T00:17:41;100432.13;;;4.22;100.00
53619;BME280;68717;53.040;18.488;2023-12-14T00:17:54;100432.13;;;4.22;100.00
53619;BME280;68717;53.040;18.488;2023-12-14T00:18:08;100433.91;;;4.22;100.00
53619;BME280;68717;53.040;18.488;2023-12-14T00:18:22;100433.06;;;4.21;100.00
53619;BME280;68717;53.040;18.488;2023-12-14T00:18:36;100446.34;;;4.21;100.00
53619;BME280;68717;53.040;18.488;2023-12-14T00:18:49;100435.72;;;4.21;100.00
53619;BME280;68717;53.040;18.488;2023-12-14T00:19:02;100438.38;;;4.21;100.00
53619;BME280;68717;53.040;18.488;2023-12-14T00:19:15;100439.22;;;4.22;100.00
53619;BME280;68717;53.040;18.488;2023-12-14T00:19:28;100438.38;;;4.21;100.00
53619;BME280;68717;53.040;18.488;2023-12-14T00:19:42;100449.00;;;4.21;100.00
53619;BME280;68717;53.040;18.488;2023-12-14T00:19:55;100438.38;;;4.21;100.00
53619;BME280;68717;53.040;18.488;2023-12-14T00:20:10;100437.53;;;4.21;100.00
53619;BME280;68717;53.040;18.488;2023-12-14T00:20:23;100436.69;;;4.20;100.00
53619;BME280;68717;53.040;18.488;2023-12-14T00:20:36;100434.03;;;4.20;100.00
53619;BME280;68717;53.040;18.488;2023-12-14T00:20:49;100447.31;;;4.20;100.00
53619;BME280;68717;53.040;18.488;2023-12-14T00:21:03;100445.50;;;4.21;100.00
53619;BME280;68717;53.040;18.488;2023-12-14T00:21:16;100434.97;;;4.19;100.00
53619;BME280;68717;53.040;18.488;2023-12-14T00:21:29;100448.16;;;4.21;100.00
53619;BME280;68717;53.040;18.488;2023-12-14T00:21:42;100450.03;;;4.19;100.00
53619;BME280;68717;53.040;18.488;2023-12-14T00:21:55;100447.38;;;4.19;100.00
53619;BME280;68717;53.040;18.488;2023-12-14T00:22:08;100433.28;;;4.18;100.00
53619;BME280;68717;53.040;18.488;2023-12-14T00:22:22;100437.72;;;4.18;100.00
53619;BME280;68717;53.040;18.488;2023-12-14T00:22:35;100443.03;;;4.18;100.00
53619;BME280;68717;53.040;18.488;2023-12-14T00:22:48;100443.91;;;4.18;100.00
53619;BME280;68717;53.040;18.488;2023-12-14T00:23:01;100438.59;;;4.18;100.00
53619;BME280;68717;53.040;18.488;2023-12-14T00:23:14;100445.59;;;4.19;100.00
53619;BME280;68717;53.040;18.488;2023-12-14T00:23:28;100434.13;;;4.19;100.00
53619;BME280;68717;53.040;18.488;2023-12-14T00:23:41;100437.63;;;4.19;100.00
53619;BME280;68717;53.040;18.488;2023-12-14T00:23:54;100450.88;;;4.19;100.00
53619;BME280;68717;53.040;18.488;2023-12-14T00:24:08;100445.59;;;4.19;100.00
53619;BME280;68717;53.040;18.488;2023-12-14T00:24:21;100444.75;;;4.19;100.00
53619;BME280;68717;53.040;18.488;2023-12-14T00:24:34;100442.09;;;4.19;100.00
53619;BME280;68717;53.040;18.488;2023-12-14T00:24:47;100446.53;;;4.18;100.00
53619;BME280;68717;53.040;18.488;2023-12-14T00:25:00;100444.75;;;4.19;100.00
53619;BME280;68717;53.040;18.488;2023-12-14T00:25:13;100437.63;;;4.19;100.00
53619;BME280;68717;53.040;18.488;2023-12-14T00:25:26;100449.19;;;4.18;100.00
53619;BME280;68717;53.040;18.488;2023-12-14T00:25:39;100449.19;;;4.18;100.00
53619;BME280;68717;53.040;18.488;2023-12-14T00:25:52;100444.75;;;4.19;100.00
53619;BME280;68717;53.040;18.488;2023-12-14T00:26:06;100441.25;;;4.18;100.00
53619;BME280;68717;53.040;18.488;2023-12-14T00:26:19;100443.03;;;4.18;100.00
53619;BME280;68717;53.040;18.488;2023-12-14T00:26:32;100445.66;;;4.18;100.00
53619;BME280;68717;53.040;18.488;2023-12-14T00:26:45;100436.88;;;4.17;100.00
53619;BME280;68717;53.040;18.488;2023-12-14T00:26:58;100444.81;;;4.17;100.00
53619;BME280;68717;53.040;18.488;2023-12-14T00:27:11;100446.63;;;4.17;100.00
53619;BME280;68717;53.040;18.488;2023-12-14T00:27:24;100442.19;;;4.17;100.00
53619;BME280;68717;53.040;18.488;2023-12-14T00:27:37;100444.81;;;4.17;100.00
53619;BME280;68717;53.040;18.488;2023-12-14T00:27:50;100447.47;;;4.17;100.00
53619;BME280;68717;53.040;18.488;2023-12-14T00:28:03;100447.47;;;4.17;100.00
53619;BME280;68717;53.040;18.488;2023-12-14T00:28:16;100440.47;;;4.16;100.00
53619;BME280;68717;53.040;18.488;2023-12-14T00:28:29;100448.31;;;4.18;100.00
53619;BME280;68717;53.040;18.488;2023-12-14T00:28:46;100447.47;;;4.17;100.00
53619;BME280;68717;53.040;18.488;2023-12-14T00:28:58;100444.81;;;4.17;100.00
53619;BME280;68717;53.040;18.488;2023-12-14T00:29:13;100447.47;;;4.17;100.00
53619;BME280;68717;53.040;18.488;2023-12-14T00:29:26;100444.91;;;4.16;100.00
53619;BME280;68717;53.040;18.488;2023-12-14T00:29:39;100446.63;;;4.17;100.00
53619;BME280;68717;53.040;18.488;2023-12-14T00:29:52;100450.13;;;4.17;100.00
53619;BME280;68717;53.040;18.488;2023-12-14T00:30:07;100442.19;;;4.17;100.00
53619;BME280;68717;53.040;18.488;2023-12-14T00:30:22;100450.03;;;4.19;100.00
53619;BME280;68717;53.040;18.488;2023-12-14T00:30:35;100449.19;;;4.18;100.00
53619;BME280;68717;53.040;18.488;2023-12-14T00:30:48;100454.50;;;4.18;100.00
53619;BME280;68717;53.040;18.488;2023-12-14T00:31:01;100450.97;;;4.18;100.00
53619;BME280;68717;53.040;18.488;2023-12-14T00:31:14;100448.31;;;4.18;100.00
53619;BME280;68717;53.040;18.488;2023-12-14T00:31:27;100455.34;;;4.19;100.00
53619;BME280;68717;53.040;18.488;2023-12-14T00:31:41;100450.97;;;4.18;100.00
53619;BME280;68717;53.040;18.488;2023-12-14T00:31:54;100453.53;;;4.19;100.00
53619;BME280;68717;53.040;18.488;2023-12-14T00:32:08;100451.84;;;4.18;100.00
53619;BME280;68717;53.040;18.488;2023-12-14T00:32:20;100446.53;;;4.18;100.00
53619;BME280;68717;53.040;18.488;2023-12-14T00:32:33;100448.22;;;4.19;100.00
53619;BME280;68717;53.040;18.488;2023-12-14T00:32:47;100449.19;;;4.18;100.00
53619;BME280;68717;53.040;18.488;2023-12-14T00:33:00;100450.03;;;4.19;100.00
53619;BME280;68717;53.040;18.488;2023-12-14T00:33:13;100444.75;;;4.19;100.00
53619;BME280;68717;53.040;18.488;2023-12-14T00:33:26;100453.63;;;4.18;100.00
53619;BME280;68717;53.040;18.488;2023-12-14T00:33:39;100455.44;;;4.17;100.00
53619;BME280;68717;53.040;18.488;2023-12-14T00:33:52;100449.19;;;4.18;100.00
53619;BME280;68717;53.040;18.488;2023-12-14T00:34:06;100452.78;;;4.17;100.00
53619;BME280;68717;53.040;18.488;2023-12-14T00:34:20;100448.31;;;4.18;100.00
53619;BME280;68717;53.040;18.488;2023-12-14T00:34:33;100451.84;;;4.18;100.00
53619;BME280;68717;53.040;18.488;2023-12-14T00:34:46;100447.47;;;4.17;100.00
53619;BME280;68717;53.040;18.488;2023-12-14T00:34:59;100452.78;;;4.17;100.00
53619;BME280;68717;53.040;18.488;2023-12-14T00:35:13;100451.09;;;4.16;100.00
53619;BME280;68717;53.040;18.488;2023-12-14T00:35:26;100443.91;;;4.18;100.00
53619;BME280;68717;53.040;18.488;2023-12-14T00:35:39;100452.78;;;4.17;100.00
53619;BME280;68717;53.040;18.488;2023-12-14T00:35:53;100447.47;;;4.17;100.00
53619;BME280;68717;53.040;18.488;2023-12-14T00:36:06;100447.47;;;4.17;100.00
53619;BME280;68717;53.040;18.488;2023-12-14T00:36:19;100446.63;;;4.17;100.00
53619;BME280;68717;53.040;18.488;2023-12-14T00:36:32;100443.97;;;4.17;100.00
53619;BME280;68717;53.040;18.488;2023-12-14T00:36:46;100441.31;;;4.17;100.00
53619;BME280;68717;53.040;18.488;2023-12-14T00:36:58;100447.47;;;4.17;100.00
53619;BME280;68717;53.040;18.488;2023-12-14T00:37:11;100444.81;;;4.17;100.00
53619;BME280;68717;53.040;18.488;2023-12-14T00:37:24;100443.91;;;4.18;100.00
53619;BME280;68717;53.040;18.488;2023-12-14T00:37:37;100451.84;;;4.18;100.00
53619;BME280;68717;53.040;18.488;2023-12-14T00:37:52;100449.19;;;4.18;100.00
53619;BME280;68717;53.040;18.488;2023-12-14T00:38:05;100449.28;;;4.17;100.00
53619;BME280;68717;53.040;18.488;2023-12-14T00:38:18;100446.63;;;4.17;100.00
53619;BME280;68717;53.040;18.488;2023-12-14T00:38:31;100445.78;;;4.16;100.00
53619;BME280;68717;53.040;18.488;2023-12-14T00:38:44;100444.81;;;4.17;100.00
53619;BME280;68717;53.040;18.488;2023-12-14T00:38:57;100450.13;;;4.17;100.00
53619;BME280;68717;53.040;18.488;2023-12-14T00:39:10;100447.47;;;4.17;100.00
53619;BME280;68717;53.040;18.488;2023-12-14T00:39:22;100449.28;;;4.17;100.00
53619;BME280;68717;53.040;18.488;2023-12-14T00:39:37;100449.28;;;4.17;100.00
53619;BME280;68717;53.040;18.488;2023-12-14T00:39:50;100447.47;;;4.17;100.00
53619;BME280;68717;53.040;18.488;2023-12-14T00:40:03;100443.13;;;4.16;100.00
53619;BME280;68717;53.040;18.488;2023-12-14T00:40:16;100447.56;;;4.16;100.00
53619;BME280;68717;53.040;18.488;2023-12-14T00:40:29;100448.44;;;4.16;100.00
53619;BME280;68717;53.040;18.488;2023-12-14T00:40:42;100449.28;;;4.17;100.00
53619;BME280;68717;53.040;18.488;2023-12-14T00:40:55;100451.09;;;4.16;100.00
53619;BME280;68717;53.040;18.488;2023-12-14T00:41:08;100445.78;;;4.16;100.00
53619;BME280;68717;53.040;18.488;2023-12-14T00:41:22;100449.38;;;4.15;100.00
53619;BME280;68717;53.040;18.488;2023-12-14T00:41:36;100448.53;;;4.15;100.00
53619;BME280;68717;53.040;18.488;2023-12-14T00:41:49;100445.78;;;4.16;100.00
53619;BME280;68717;53.040;18.488;2023-12-14T00:42:02;100445.03;;;4.14;100.00
53619;BME280;68717;53.040;18.488;2023-12-14T00:42:16;100447.69;;;4.14;100.00
53619;BME280;68717;53.040;18.488;2023-12-14T00:42:29;100448.53;;;4.15;100.00
53619;BME280;68717;53.040;18.488;2023-12-14T00:42:41;100449.38;;;4.15;100.00
53619;BME280;68717;53.040;18.488;2023-12-14T00:42:54;100449.38;;;4.15;100.00
53619;BME280;68717;53.040;18.488;2023-12-14T00:43:07;100448.53;;;4.15;100.00
53619;BME280;68717;53.040;18.488;2023-12-14T00:43:21;100449.38;;;4.15;100.00
53619;BME280;68717;53.040;18.488;2023-12-14T00:43:34;100449.38;;;4.15;100.00
53619;BME280;68717;53.040;18.488;2023-12-14T00:43:48;100451.09;;;4.16;100.00
53619;BME280;68717;53.040;18.488;2023-12-14T00:44:01;100456.41;;;4.16;100.00
53619;BME280;68717;53.040;18.488;2023-12-14T00:44:14;100454.69;;;4.15;100.00
53619;BME280;68717;53.040;18.488;2023-12-14T00:44:27;100454.59;;;4.17;100.00
53619;BME280;68717;53.040;18.488;2023-12-14T00:44:40;100454.59;;;4.17;100.00
53619;BME280;68717;53.040;18.488;2023-12-14T00:44:53;100454.59;;;4.17;100.00
53619;BME280;68717;53.040;18.488;2023-12-14T00:45:07;100450.13;;;4.17;100.00
53619;BME280;68717;53.040;18.488;2023-12-14T00:45:23;100458.09;;;4.17;100.00
53619;BME280;68717;53.040;18.488;2023-12-14T00:45:36;100446.53;;;4.18;100.00
53619;BME280;68717;53.040;18.488;2023-12-14T00:45:49;100458.09;;;4.17;100.00
53619;BME280;68717;53.040;18.488;2023-12-14T00:46:03;100448.31;;;4.18;100.00
53619;BME280;68717;53.040;18.488;2023-12-14T00:46:15;100451.94;;;4.17;100.00
53619;BME280;68717;53.040;18.488;2023-12-14T00:46:29;100454.50;;;4.18;100.00
53619;BME280;68717;53.040;18.488;2023-12-14T00:46:42;100450.13;;;4.17;100.00
53619;BME280;68717;53.040;18.488;2023-12-14T00:46:54;100453.75;;;4.16;100.00
53619;BME280;68717;53.040;18.488;2023-12-14T00:47:11;100448.44;;;4.16;100.00
53619;BME280;68717;53.040;18.488;2023-12-14T00:47:24;100451.94;;;4.17;100.00
53619;BME280;68717;53.040;18.488;2023-12-14T00:47:37;100451.09;;;4.16;100.00
53619;BME280;68717;53.040;18.488;2023-12-14T00:47:50;100451.19;;;4.15;100.00
53619;BME280;68717;53.040;18.488;2023-12-14T00:48:03;100453.00;;;4.14;100.00
53619;BME280;68717;53.040;18.488;2023-12-14T00:48:16;100458.31;;;4.14;100.00
53619;BME280;68717;53.040;18.488;2023-12-14T00:48:29;100447.69;;;4.14;100.00
53619;BME280;68717;53.040;18.488;2023-12-14T00:48:42;100453.00;;;4.14;100.00
53619;BME280;68717;53.040;18.488;2023-12-14T00:48:57;100452.16;;;4.14;100.00
53619;BME280;68717;53.040;18.488;2023-12-14T00:49:10;100451.28;;;4.13;100.00
53619;BME280;68717;53.040;18.488;2023-12-14T00:49:23;100452.16;;;4.14;100.00
53619;BME280;68717;53.040;18.488;2023-12-14T00:49:36;100448.63;;;4.13;100.00
53619;BME280;68717;53.040;18.488;2023-12-14T00:49:49;100449.59;;;4.12;100.00
53619;BME280;68717;53.040;18.488;2023-12-14T00:50:02;100453.19;;;4.11;100.00
53619;BME280;68717;53.040;18.488;2023-12-14T00:50:15;100450.53;;;4.11;100.00
53619;BME280;68717;53.040;18.488;2023-12-14T00:50:28;100450.53;;;4.11;100.00
53619;BME280;68717;53.040;18.488;2023-12-14T00:50:41;100453.19;;;4.11;100.00
53619;BME280;68717;53.040;18.488;2023-12-14T00:50:54;100452.41;;;4.09;100.00
53619;BME280;68717;53.040;18.488;2023-12-14T00:51:08;100453.28;;;4.09;100.00
53619;BME280;68717;53.040;18.488;2023-12-14T00:51:21;100449.75;;;4.09;100.00
53619;BME280;68717;53.040;18.488;2023-12-14T00:51:34;100449.75;;;4.09;100.00
53619;BME280;68717;53.040;18.488;2023-12-14T00:51:47;100455.06;;;4.09;100.00
53619;BME280;68717;53.040;18.488;2023-12-14T00:52:01;100457.72;;;4.09;100.00
53619;BME280;68717;53.040;18.488;2023-12-14T00:52:14;100449.75;;;4.09;100.00
53619;BME280;68717;53.040;18.488;2023-12-14T00:52:27;100448.94;;;4.08;100.00
53619;BME280;68717;53.040;18.488;2023-12-14T00:52:41;100453.38;;;4.08;100.00
53619;BME280;68717;53.040;18.488;2023-12-14T00:52:54;100457.84;;;4.07;100.00
53619;BME280;68717;53.040;18.488;2023-12-14T00:53:07;100451.56;;;4.08;100.00
53619;BME280;68717;53.040;18.488;2023-12-14T00:53:21;100453.38;;;4.08;100.00
53619;BME280;68717;53.040;18.488;2023-12-14T00:53:34;100456.88;;;4.08;100.00
53619;BME280;68717;53.040;18.488;2023-12-14T00:53:47;100456.03;;;4.08;100.00
53619;BME280;68717;53.040;18.488;2023-12-14T00:54:00;100456.88;;;4.08;100.00
53619;BME280;68717;53.040;18.488;2023-12-14T00:54:13;100452.53;;;4.07;100.00
53619;BME280;68717;53.040;18.488;2023-12-14T00:54:26;100455.19;;;4.07;100.00
53619;BME280;68717;53.040;18.488;2023-12-14T00:54:38;100456.03;;;4.08;100.00
53619;BME280;68717;53.040;18.488;2023-12-14T00:54:51;100458.69;;;4.08;100.00
53619;BME280;68717;53.040;18.488;2023-12-14T00:55:05;100456.97;;;4.07;100.00
53619;BME280;68717;53.040;18.488;2023-12-14T00:55:18;100459.63;;;4.07;100.00
53619;BME280;68717;53.040;18.488;2023-12-14T00:55:32;100456.97;;;4.07;100.00
53619;BME280;68717;53.040;18.488;2023-12-14T00:55:45;100456.97;;;4.07;100.00
53619;BME280;68717;53.040;18.488;2023-12-14T00:55:58;100461.44;;;4.06;100.00
53619;BME280;68717;53.040;18.488;2023-12-14T00:56:12;100456.13;;;4.06;100.00
53619;BME280;68717;53.040;18.488;2023-12-14T00:56:25;100455.28;;;4.06;100.00
53619;BME280;68717;53.040;18.488;2023-12-14T00:56:38;100460.59;;;4.06;100.00
53619;BME280;68717;53.040;18.488;2023-12-14T00:56:51;100458.78;;;4.06;100.00
53619;BME280;68717;53.040;18.488;2023-12-14T00:57:04;100460.59;;;4.06;100.00
53619;BME280;68717;53.040;18.488;2023-12-14T00:57:17;100460.59;;;4.06;100.00
53619;BME280;68717;53.040;18.488;2023-12-14T00:57:31;100460.59;;;4.06;100.00
53619;BME280;68717;53.040;18.488;2023-12-14T00:57:44;100459.63;;;4.07;100.00
53619;BME280;68717;53.040;18.488;2023-12-14T00:57:56;100461.44;;;4.06;100.00
53619;BME280;68717;53.040;18.488;2023-12-14T00:58:10;100459.63;;;4.07;100.00
53619;BME280;68717;53.040;18.488;2023-12-14T00:58:25;100455.28;;;4.06;100.00
53619;BME280;68717;53.040;18.488;2023-12-14T00:58:38;100462.28;;;4.07;100.00
53619;BME280;68717;53.040;18.488;2023-12-14T00:58:51;100459.63;;;4.07;100.00
53619;BME280;68717;53.040;18.488;2023-12-14T00:59:04;100453.47;;;4.06;100.00
53619;BME280;68717;53.040;18.488;2023-12-14T00:59:17;100461.44;;;4.06;100.00
53619;BME280;68717;53.040;18.488;2023-12-14T00:59:31;100460.50;;;4.07;100.00
53619;BME280;68717;53.040;18.488;2023-12-14T00:59:44;100459.63;;;4.07;100.00
53619;BME280;68717;53.040;18.488;2023-12-14T00:59:57;100459.63;;;4.07;100.00
53619;BME280;68717;53.040;18.488;2023-12-14T01:00:11;100464.00;;;4.08;100.00
53619;BME280;68717;53.040;18.488;2023-12-14T01:00:26;100461.34;;;4.08;100.00
53619;BME280;68717;53.040;18.488;2023-12-14T01:00:40;100456.03;;;4.08;100.00
53619;BME280;68717;53.040;18.488;2023-12-14T01:00:52;100457.84;;;4.07;100.00
53619;BME280;68717;53.040;18.488;2023-12-14T01:01:07;100464.00;;;4.08;100.00
53619;BME280;68717;53.040;18.488;2023-12-14T01:01:20;100456.97;;;4.07;100.00
53619;BME280;68717;53.040;18.488;2023-12-14T01:01:33;100461.34;;;4.08;100.00
53619;BME280;68717;53.040;18.488;2023-12-14T01:01:46;100464.00;;;4.08;100.00
53619;BME280;68717;53.040;18.488;2023-12-14T01:01:59;100464.00;;;4.08;100.00
53619;BME280;68717;53.040;18.488;2023-12-14T01:02:12;100461.34;;;4.08;100.00
53619;BME280;68717;53.040;18.488;2023-12-14T01:02:25;100462.28;;;4.07;100.00
53619;BME280;68717;53.040;18.488;2023-12-14T01:02:38;100463.16;;;4.07;100.00
53619;BME280;68717;53.040;18.488;2023-12-14T01:02:51;100466.66;;;4.08;100.00
53619;BME280;68717;53.040;18.488;2023-12-14T01:03:05;100464.00;;;4.08;100.00
53619;BME280;68717;53.040;18.488;2023-12-14T01:03:18;100464.84;;;4.08;100.00
53619;BME280;68717;53.040;18.488;2023-12-14T01:03:31;100461.34;;;4.08;100.00
53619;BME280;68717;53.040;18.488;2023-12-14T01:03:45;100464.84;;;4.08;100.00
53619;BME280;68717;53.040;18.488;2023-12-14T01:03:58;100468.34;;;4.09;100.00
53619;BME280;68717;53.040;18.488;2023-12-14T01:04:12;100462.19;;;4.08;100.00
53619;BME280;68717;53.040;18.488;2023-12-14T01:04:24;100461.34;;;4.08;100.00
53619;BME280;68717;53.040;18.488;2023-12-14T01:04:38;100464.00;;;4.08;100.00
53619;BME280;68717;53.040;18.488;2023-12-14T01:04:51;100459.53;;;4.08;100.00
53619;BME280;68717;53.040;18.488;2023-12-14T01:05:05;100474.59;;;4.08;100.00
53619;BME280;68717;53.040;18.488;2023-12-14T01:05:18;100463.16;;;4.07;100.00
53619;BME280;68717;53.040;18.488;2023-12-14T01:05:31;100462.28;;;4.07;100.00
53619;BME280;68717;53.040;18.488;2023-12-14T01:05:44;100462.28;;;4.07;100.00
53619;BME280;68717;53.040;18.488;2023-12-14T01:05:57;100461.44;;;4.06;100.00
53619;BME280;68717;53.040;18.488;2023-12-14T01:06:10;100460.59;;;4.06;100.00
53619;BME280;68717;53.040;18.488;2023-12-14T01:06:23;100462.28;;;4.07;100.00
53619;BME280;68717;53.040;18.488;2023-12-14T01:06:36;100460.59;;;4.06;100.00
53619;BME280;68717;53.040;18.488;2023-12-14T01:06:49;100458.91;;;4.05;100.00
53619;BME280;68717;53.040;18.488;2023-12-14T01:07:02;100462.41;;;4.05;100.00
53619;BME280;68717;53.040;18.488;2023-12-14T01:07:16;100459.84;;;4.04;100.00
53619;BME280;68717;53.040;18.488;2023-12-14T01:07:29;100467.78;;;4.04;100.00
53619;BME280;68717;53.040;18.488;2023-12-14T01:07:42;100462.47;;;4.04;100.00
53619;BME280;68717;53.040;18.488;2023-12-14T01:07:55;100465.13;;;4.04;100.00
53619;BME280;68717;53.040;18.488;2023-12-14T01:08:08;100462.47;;;4.04;100.00
53619;BME280;68717;53.040;18.488;2023-12-14T01:08:21;100470.44;;;4.04;100.00
53619;BME280;68717;53.040;18.488;2023-12-14T01:08:34;100459.84;;;4.04;100.00
53619;BME280;68717;53.040;18.488;2023-12-14T01:08:47;100460.78;;;4.03;100.00
53619;BME280;68717;53.040;18.488;2023-12-14T01:09:01;100465.22;;;4.02;100.00